sensor_id;sensor_type;location;lat;lon;timestamp;P1;durP1;ratioP1;P2;durP2;ratioP2
59854;SDS011;45732;52.850;6.896;2022-09-12T00:00:47;11.98;;;10.77;;
59854;SDS011;45732;52.850;6.896;2022-09-12T00:03:13;13.50;;;11.90;;
59854;SDS011;45732;52.850;6.896;2022-09-12T00:05:42;14.63;;;12.98;;
59854;SDS011;45732;52.850;6.896;2022-09-12T00:08:14;17.20;;;12.75;;
59854;SDS011;45732;52.850;6.896;2022-09-12T00:10:40;13.23;;;11.90;;
59854;SDS011;45732;52.850;6.896;2022-09-12T00:13:07;14.00;;;12.50;;
59854;SDS011;45732;52.850;6.896;2022-09-12T00:15:37;13.30;;;11.98;;
59854;SDS011;45732;52.850;6.896;2022-09-12T00:18:07;12.48;;;10.85;;
59854;SDS011;45732;52.850;6.896;2022-09-12T00:20:34;14.73;;;12.40;;
59854;SDS011;45732;52.850;6.896;2022-09-12T00:22:59;13.30;;;12.00;;
59854;SDS011;45732;52.850;6.896;2022-09-12T00:25:25;14.32;;;12.90;;
59854;SDS011;45732;52.850;6.896;2022-09-12T00:27:51;13.65;;;12.23;;
59854;SDS011;45732;52.850;6.896;2022-09-12T00:30:17;11.73;;;10.63;;
59854;SDS011;45732;52.850;6.896;2022-09-12T00:32:43;12.80;;;11.52;;
59854;SDS011;45732;52.850;6.896;2022-09-12T00:35:09;12.85;;;11.60;;
59854;SDS011;45732;52.850;6.896;2022-09-12T00:37:34;12.85;;;11.55;;
59854;SDS011;45732;52.850;6.896;2022-09-12T00:40:00;13.70;;;11.20;;
59854;SDS011;45732;52.850;6.896;2022-09-12T00:42:26;12.25;;;10.73;;
59854;SDS011;45732;52.850;6.896;2022-09-12T00:44:52;12.85;;;11.27;;
59854;SDS011;45732;52.850;6.896;2022-09-12T00:47:20;11.90;;;10.77;;
59854;SDS011;45732;52.850;6.896;2022-09-12T00:52:39;12.65;;;10.00;;
59854;SDS011;45732;52.850;6.896;2022-09-12T00:55:11;11.68;;;10.52;;
59854;SDS011;45732;52.850;6.896;2022-09-12T01:00:27;11.98;;;10.77;;
59854;SDS011;45732;52.850;6.896;2022-09-12T01:03:00;13.32;;;11.70;;
59854;SDS011;45732;52.850;6.896;2022-09-12T01:05:29;13.77;;;11.02;;
59854;SDS011;45732;52.850;6.896;2022-09-12T01:07:58;14.40;;;11.50;;
59854;SDS011;45732;52.850;6.896;2022-09-12T01:10:25;13.50;;;12.13;;
59854;SDS011;45732;52.850;6.896;2022-09-12T01:12:51;12.73;;;11.40;;
59854;SDS011;45732;52.850;6.896;2022-09-12T01:15:16;12.75;;;11.52;;
59854;SDS011;45732;52.850;6.896;2022-09-12T01:17:48;14.20;;;12.15;;
59854;SDS011;45732;52.850;6.896;2022-09-12T01:20:34;13.13;;;10.77;;
59854;SDS011;45732;52.850;6.896;2022-09-12T01:23:31;11.83;;;10.67;;
59854;SDS011;45732;52.850;6.896;2022-09-12T01:34:17;14.00;;;11.93;;
59854;SDS011;45732;52.850;6.896;2022-09-12T01:39:35;14.95;;;13.25;;
59854;SDS011;45732;52.850;6.896;2022-09-12T01:44:38;18.15;;;16.17;;
59854;SDS011;45732;52.850;6.896;2022-09-12T01:47:32;19.20;;;17.20;;
59854;SDS011;45732;52.850;6.896;2022-09-12T01:50:05;20.38;;;18.27;;
59854;SDS011;45732;52.850;6.896;2022-09-12T01:52:52;20.67;;;18.58;;
59854;SDS011;45732;52.850;6.896;2022-09-12T01:55:23;19.90;;;17.70;;
59854;SDS011;45732;52.850;6.896;2022-09-12T01:57:58;20.27;;;18.15;;
59854;SDS011;45732;52.850;6.896;2022-09-12T02:00:28;23.02;;;20.27;;
59854;SDS011;45732;52.850;6.896;2022-09-12T02:03:17;21.80;;;19.42;;
59854;SDS011;45732;52.850;6.896;2022-09-12T02:05:52;31.33;;;20.83;;
59854;SDS011;45732;52.850;6.896;2022-09-12T02:08:26;22.15;;;19.88;;
59854;SDS011;45732;52.850;6.896;2022-09-12T02:11:06;23.95;;;21.33;;
59854;SDS011;45732;52.850;6.896;2022-09-12T02:16:08;22.80;;;20.45;;
59854;SDS011;45732;52.850;6.896;2022-09-12T02:21:09;8.07;;;5.90;;
59854;SDS011;45732;52.850;6.896;2022-09-12T02:23:38;12.75;;;11.40;;
59854;SDS011;45732;52.850;6.896;2022-09-12T02:26:12;17.42;;;15.68;;
59854;SDS011;45732;52.850;6.896;2022-09-12T02:28:55;18.73;;;12.75;;
59854;SDS011;45732;52.850;6.896;2022-09-12T02:39:16;10.77;;;7.63;;
59854;SDS011;45732;52.850;6.896;2022-09-12T02:41:46;11.48;;;9.05;;
59854;SDS011;45732;52.850;6.896;2022-09-12T02:44:14;12.02;;;9.23;;
59854;SDS011;45732;52.850;6.896;2022-09-12T02:46:41;11.77;;;8.30;;
59854;SDS011;45732;52.850;6.896;2022-09-12T02:49:10;13.88;;;10.63;;
59854;SDS011;45732;52.850;6.896;2022-09-12T02:51:37;13.32;;;9.25;;
59854;SDS011;45732;52.850;6.896;2022-09-12T02:54:03;14.63;;;9.68;;
59854;SDS011;45732;52.850;6.896;2022-09-12T02:56:31;12.20;;;9.70;;
59854;SDS011;45732;52.850;6.896;2022-09-12T02:59:00;12.68;;;9.15;;
59854;SDS011;45732;52.850;6.896;2022-09-12T03:10:06;22.00;;;17.17;;
59854;SDS011;45732;52.850;6.896;2022-09-12T03:18:56;12.80;;;9.93;;
59854;SDS011;45732;52.850;6.896;2022-09-12T03:21:26;8.70;;;6.35;;
59854;SDS011;45732;52.850;6.896;2022-09-12T03:26:54;9.70;;;6.50;;
59854;SDS011;45732;52.850;6.896;2022-09-12T03:29:24;11.50;;;8.50;;
59854;SDS011;45732;52.850;6.896;2022-09-12T03:31:53;10.65;;;8.35;;
59854;SDS011;45732;52.850;6.896;2022-09-12T03:34:21;11.05;;;9.07;;
59854;SDS011;45732;52.850;6.896;2022-09-12T03:36:48;10.50;;;9.35;;
59854;SDS011;45732;52.850;6.896;2022-09-12T03:39:14;15.75;;;11.00;;
59854;SDS011;45732;52.850;6.896;2022-09-12T03:41:40;11.63;;;10.20;;
59854;SDS011;45732;52.850;6.896;2022-09-12T03:44:06;11.18;;;9.25;;
59854;SDS011;45732;52.850;6.896;2022-09-12T03:46:32;10.75;;;9.35;;
59854;SDS011;45732;52.850;6.896;2022-09-12T03:48:58;13.50;;;9.90;;
59854;SDS011;45732;52.850;6.896;2022-09-12T03:51:24;12.25;;;10.15;;
59854;SDS011;45732;52.850;6.896;2022-09-12T03:53:49;12.35;;;10.05;;
59854;SDS011;45732;52.850;6.896;2022-09-12T03:56:15;11.95;;;10.15;;
59854;SDS011;45732;52.850;6.896;2022-09-12T03:58:42;11.35;;;10.15;;
59854;SDS011;45732;52.850;6.896;2022-09-12T04:01:12;11.27;;;9.45;;
59854;SDS011;45732;52.850;6.896;2022-09-12T04:03:40;11.45;;;9.52;;
59854;SDS011;45732;52.850;6.896;2022-09-12T04:06:07;12.20;;;10.98;;
59854;SDS011;45732;52.850;6.896;2022-09-12T04:08:35;13.48;;;12.02;;
59854;SDS011;45732;52.850;6.896;2022-09-12T04:11:02;15.55;;;13.85;;
59854;SDS011;45732;52.850;6.896;2022-09-12T04:13:29;15.57;;;13.93;;
59854;SDS011;45732;52.850;6.896;2022-09-12T04:15:58;17.42;;;15.48;;
59854;SDS011;45732;52.850;6.896;2022-09-12T04:18:24;17.90;;;15.40;;
59854;SDS011;45732;52.850;6.896;2022-09-12T04:20:50;17.65;;;15.82;;
59854;SDS011;45732;52.850;6.896;2022-09-12T04:23:16;22.45;;;20.15;;
59854;SDS011;45732;52.850;6.896;2022-09-12T04:25:42;20.67;;;18.23;;
59854;SDS011;45732;52.850;6.896;2022-09-12T04:28:07;18.23;;;16.30;;
59854;SDS011;45732;52.850;6.896;2022-09-12T04:30:33;17.00;;;15.20;;
59854;SDS011;45732;52.850;6.896;2022-09-12T04:32:59;18.05;;;16.23;;
59854;SDS011;45732;52.850;6.896;2022-09-12T04:35:25;17.92;;;16.02;;
59854;SDS011;45732;52.850;6.896;2022-09-12T04:37:51;17.60;;;15.80;;
59854;SDS011;45732;52.850;6.896;2022-09-12T04:40:17;19.85;;;17.75;;
59854;SDS011;45732;52.850;6.896;2022-09-12T04:42:43;21.27;;;19.08;;
59854;SDS011;45732;52.850;6.896;2022-09-12T04:45:09;20.40;;;18.20;;
59854;SDS011;45732;52.850;6.896;2022-09-12T04:47:35;19.95;;;17.58;;
59854;SDS011;45732;52.850;6.896;2022-09-12T04:50:01;20.05;;;17.85;;
59854;SDS011;45732;52.850;6.896;2022-09-12T04:52:27;25.90;;;19.05;;
59854;SDS011;45732;52.850;6.896;2022-09-12T04:54:52;20.90;;;18.70;;
59854;SDS011;45732;52.850;6.896;2022-09-12T04:57:18;20.00;;;17.95;;
59854;SDS011;45732;52.850;6.896;2022-09-12T04:59:44;24.15;;;21.35;;
59854;SDS011;45732;52.850;6.896;2022-09-12T05:02:09;21.75;;;19.45;;
59854;SDS011;45732;52.850;6.896;2022-09-12T05:04:35;21.27;;;19.08;;
59854;SDS011;45732;52.850;6.896;2022-09-12T05:07:01;21.30;;;18.95;;
59854;SDS011;45732;52.850;6.896;2022-09-12T05:09:27;21.13;;;18.73;;
59854;SDS011;45732;52.850;6.896;2022-09-12T05:11:53;20.55;;;18.45;;
59854;SDS011;45732;52.850;6.896;2022-09-12T05:14:19;23.33;;;20.90;;
59854;SDS011;45732;52.850;6.896;2022-09-12T05:16:44;22.20;;;19.90;;
59854;SDS011;45732;52.850;6.896;2022-09-12T05:19:10;22.80;;;20.50;;
59854;SDS011;45732;52.850;6.896;2022-09-12T05:21:36;22.70;;;20.30;;
59854;SDS011;45732;52.850;6.896;2022-09-12T05:24:02;22.00;;;19.70;;
59854;SDS011;45732;52.850;6.896;2022-09-12T05:26:30;21.60;;;18.60;;
59854;SDS011;45732;52.850;6.896;2022-09-12T05:28:56;20.55;;;18.20;;
59854;SDS011;45732;52.850;6.896;2022-09-12T05:31:22;19.75;;;17.45;;
59854;SDS011;45732;52.850;6.896;2022-09-12T05:33:50;20.45;;;17.65;;
59854;SDS011;45732;52.850;6.896;2022-09-12T05:36:18;18.40;;;16.50;;
59854;SDS011;45732;52.850;6.896;2022-09-12T05:38:45;18.48;;;16.17;;
59854;SDS011;45732;52.850;6.896;2022-09-12T05:41:13;18.80;;;16.90;;
59854;SDS011;45732;52.850;6.896;2022-09-12T05:43:40;23.08;;;20.67;;
59854;SDS011;45732;52.850;6.896;2022-09-12T05:46:09;32.63;;;27.48;;
59854;SDS011;45732;52.850;6.896;2022-09-12T05:48:40;34.25;;;27.55;;
59854;SDS011;45732;52.850;6.896;2022-09-12T05:51:26;33.80;;;29.33;;
59854;SDS011;45732;52.850;6.896;2022-09-12T05:53:56;32.85;;;28.48;;
59854;SDS011;45732;52.850;6.896;2022-09-12T05:56:24;39.63;;;30.58;;
59854;SDS011;45732;52.850;6.896;2022-09-12T05:59:02;37.97;;;30.45;;
59854;SDS011;45732;52.850;6.896;2022-09-12T06:01:31;39.00;;;31.20;;
59854;SDS011;45732;52.850;6.896;2022-09-12T06:03:58;38.42;;;32.55;;
59854;SDS011;45732;52.850;6.896;2022-09-12T06:06:26;37.92;;;30.90;;
59854;SDS011;45732;52.850;6.896;2022-09-12T06:08:54;37.75;;;31.02;;
59854;SDS011;45732;52.850;6.896;2022-09-12T06:11:22;39.65;;;31.50;;
59854;SDS011;45732;52.850;6.896;2022-09-12T06:13:50;39.50;;;31.88;;
59854;SDS011;45732;52.850;6.896;2022-09-12T06:16:17;41.67;;;31.40;;
59854;SDS011;45732;52.850;6.896;2022-09-12T06:18:48;41.40;;;30.70;;
59854;SDS011;45732;52.850;6.896;2022-09-12T06:21:16;37.20;;;30.77;;
59854;SDS011;45732;52.850;6.896;2022-09-12T06:23:42;43.08;;;32.65;;
59854;SDS011;45732;52.850;6.896;2022-09-12T06:26:09;41.13;;;31.05;;
59854;SDS011;45732;52.850;6.896;2022-09-12T06:28:37;40.20;;;31.42;;
59854;SDS011;45732;52.850;6.896;2022-09-12T06:31:05;40.70;;;31.80;;
59854;SDS011;45732;52.850;6.896;2022-09-12T06:33:34;40.03;;;31.67;;
59854;SDS011;45732;52.850;6.896;2022-09-12T06:36:03;40.85;;;31.95;;
59854;SDS011;45732;52.850;6.896;2022-09-12T06:38:33;42.92;;;33.50;;
59854;SDS011;45732;52.850;6.896;2022-09-12T06:40:59;46.22;;;34.92;;
59854;SDS011;45732;52.850;6.896;2022-09-12T06:43:29;44.17;;;32.67;;
59854;SDS011;45732;52.850;6.896;2022-09-12T06:45:54;44.33;;;33.85;;
59854;SDS011;45732;52.850;6.896;2022-09-12T06:48:20;44.17;;;33.67;;
59854;SDS011;45732;52.850;6.896;2022-09-12T06:51:00;47.63;;;34.33;;
59854;SDS011;45732;52.850;6.896;2022-09-12T06:53:28;46.55;;;34.22;;
59854;SDS011;45732;52.850;6.896;2022-09-12T06:56:00;47.38;;;34.55;;
59854;SDS011;45732;52.850;6.896;2022-09-12T06:58:28;42.95;;;32.42;;
59854;SDS011;45732;52.850;6.896;2022-09-12T07:01:01;43.03;;;33.10;;
59854;SDS011;45732;52.850;6.896;2022-09-12T07:03:27;45.47;;;33.63;;
59854;SDS011;45732;52.850;6.896;2022-09-12T07:05:54;47.05;;;32.78;;
59854;SDS011;45732;52.850;6.896;2022-09-12T07:08:19;47.03;;;33.88;;
59854;SDS011;45732;52.850;6.896;2022-09-12T07:10:45;50.05;;;33.40;;
59854;SDS011;45732;52.850;6.896;2022-09-12T07:13:11;43.47;;;32.10;;
59854;SDS011;45732;52.850;6.896;2022-09-12T07:15:37;39.35;;;30.08;;
59854;SDS011;45732;52.850;6.896;2022-09-12T07:18:04;38.15;;;29.45;;
59854;SDS011;45732;52.850;6.896;2022-09-12T07:20:30;38.83;;;30.05;;
59854;SDS011;45732;52.850;6.896;2022-09-12T07:22:57;35.47;;;26.65;;
59854;SDS011;45732;52.850;6.896;2022-09-12T07:25:24;33.13;;;25.85;;
59854;SDS011;45732;52.850;6.896;2022-09-12T07:27:51;32.55;;;25.63;;
59854;SDS011;45732;52.850;6.896;2022-09-12T07:30:17;33.50;;;25.35;;
59854;SDS011;45732;52.850;6.896;2022-09-12T07:32:43;30.48;;;24.17;;
59854;SDS011;45732;52.850;6.896;2022-09-12T07:35:09;31.13;;;24.02;;
59854;SDS011;45732;52.850;6.896;2022-09-12T07:37:35;32.13;;;24.67;;
59854;SDS011;45732;52.850;6.896;2022-09-12T07:40:00;30.67;;;25.20;;
59854;SDS011;45732;52.850;6.896;2022-09-12T07:42:27;31.40;;;24.20;;
59854;SDS011;45732;52.850;6.896;2022-09-12T07:44:52;28.20;;;23.67;;
59854;SDS011;45732;52.850;6.896;2022-09-12T07:47:18;28.10;;;21.80;;
59854;SDS011;45732;52.850;6.896;2022-09-12T07:49:44;28.35;;;23.00;;
59854;SDS011;45732;52.850;6.896;2022-09-12T07:52:09;27.08;;;21.50;;
59854;SDS011;45732;52.850;6.896;2022-09-12T07:54:35;24.98;;;20.42;;
59854;SDS011;45732;52.850;6.896;2022-09-12T07:57:01;25.02;;;19.90;;
59854;SDS011;45732;52.850;6.896;2022-09-12T07:59:27;23.08;;;19.27;;
59854;SDS011;45732;52.850;6.896;2022-09-12T08:01:52;23.92;;;19.17;;
59854;SDS011;45732;52.850;6.896;2022-09-12T08:04:18;22.73;;;19.83;;
59854;SDS011;45732;52.850;6.896;2022-09-12T08:06:44;23.27;;;19.85;;
59854;SDS011;45732;52.850;6.896;2022-09-12T08:09:10;23.00;;;18.42;;
59854;SDS011;45732;52.850;6.896;2022-09-12T08:11:36;22.58;;;18.95;;
59854;SDS011;45732;52.850;6.896;2022-09-12T08:14:02;22.25;;;18.27;;
59854;SDS011;45732;52.850;6.896;2022-09-12T08:16:30;23.48;;;19.02;;
59854;SDS011;45732;52.850;6.896;2022-09-12T08:18:58;20.92;;;18.13;;
59854;SDS011;45732;52.850;6.896;2022-09-12T08:21:25;23.17;;;18.45;;
59854;SDS011;45732;52.850;6.896;2022-09-12T08:23:53;21.55;;;17.15;;
59854;SDS011;45732;52.850;6.896;2022-09-12T08:26:25;20.40;;;16.90;;
59854;SDS011;45732;52.850;6.896;2022-09-12T08:28:51;17.90;;;15.43;;
59854;SDS011;45732;52.850;6.896;2022-09-12T08:31:18;18.58;;;15.68;;
59854;SDS011;45732;52.850;6.896;2022-09-12T08:33:45;19.60;;;15.80;;
59854;SDS011;45732;52.850;6.896;2022-09-12T08:36:12;21.17;;;16.25;;
59854;SDS011;45732;52.850;6.896;2022-09-12T08:38:45;20.27;;;16.23;;
59854;SDS011;45732;52.850;6.896;2022-09-12T08:46:22;17.85;;;15.85;;
59854;SDS011;45732;52.850;6.896;2022-09-12T08:49:12;20.85;;;16.38;;
59854;SDS011;45732;52.850;6.896;2022-09-12T08:51:46;18.63;;;16.00;;
59854;SDS011;45732;52.850;6.896;2022-09-12T08:54:24;18.65;;;16.20;;
59854;SDS011;45732;52.850;6.896;2022-09-12T08:57:02;18.77;;;16.10;;
59854;SDS011;45732;52.850;6.896;2022-09-12T08:59:39;20.58;;;17.95;;
59854;SDS011;45732;52.850;6.896;2022-09-12T09:07:53;21.55;;;17.83;;
59854;SDS011;45732;52.850;6.896;2022-09-12T09:13:37;23.35;;;19.70;;
59854;SDS011;45732;52.850;6.896;2022-09-12T09:16:31;28.48;;;21.30;;
59854;SDS011;45732;52.850;6.896;2022-09-12T09:19:19;25.42;;;20.95;;
59854;SDS011;45732;52.850;6.896;2022-09-12T09:21:50;23.88;;;19.77;;
59854;SDS011;45732;52.850;6.896;2022-09-12T09:24:35;25.50;;;21.45;;
59854;SDS011;45732;52.850;6.896;2022-09-12T09:29:40;27.42;;;22.52;;
59854;SDS011;45732;52.850;6.896;2022-09-12T09:32:18;33.13;;;26.00;;
59854;SDS011;45732;52.850;6.896;2022-09-12T09:34:51;34.00;;;26.15;;
59854;SDS011;45732;52.850;6.896;2022-09-12T09:37:59;33.67;;;25.77;;
59854;SDS011;45732;52.850;6.896;2022-09-12T09:40:19;38.00;;;27.13;;
59854;SDS011;45732;52.850;6.896;2022-09-12T09:45:53;31.90;;;23.85;;
59854;SDS011;45732;52.850;6.896;2022-09-12T09:48:33;36.05;;;26.92;;
59854;SDS011;45732;52.850;6.896;2022-09-12T09:51:02;36.45;;;26.67;;
59854;SDS011;45732;52.850;6.896;2022-09-12T09:56:08;35.92;;;26.25;;
59854;SDS011;45732;52.850;6.896;2022-09-12T09:58:38;36.55;;;27.88;;
59854;SDS011;45732;52.850;6.896;2022-09-12T10:01:05;37.20;;;27.25;;
59854;SDS011;45732;52.850;6.896;2022-09-12T10:03:39;37.05;;;26.58;;
59854;SDS011;45732;52.850;6.896;2022-09-12T10:08:45;34.97;;;26.58;;
59854;SDS011;45732;52.850;6.896;2022-09-12T10:11:20;34.38;;;24.92;;
59854;SDS011;45732;52.850;6.896;2022-09-12T10:16:21;32.35;;;24.83;;
59854;SDS011;45732;52.850;6.896;2022-09-12T10:18:49;30.60;;;24.07;;
59854;SDS011;45732;52.850;6.896;2022-09-12T10:26:36;31.90;;;23.45;;
59854;SDS011;45732;52.850;6.896;2022-09-12T10:29:18;30.17;;;23.23;;
59854;SDS011;45732;52.850;6.896;2022-09-12T10:31:54;30.80;;;23.20;;
59854;SDS011;45732;52.850;6.896;2022-09-12T10:34:34;31.13;;;24.45;;
59854;SDS011;45732;52.850;6.896;2022-09-12T10:37:09;27.75;;;22.05;;
59854;SDS011;45732;52.850;6.896;2022-09-12T10:39:48;24.73;;;19.30;;
59854;SDS011;45732;52.850;6.896;2022-09-12T10:42:17;23.63;;;18.70;;
59854;SDS011;45732;52.850;6.896;2022-09-12T10:48:00;26.95;;;19.60;;
59854;SDS011;45732;52.850;6.896;2022-09-12T10:50:30;25.05;;;18.55;;
59854;SDS011;45732;52.850;6.896;2022-09-12T10:53:23;26.88;;;19.25;;
59854;SDS011;45732;52.850;6.896;2022-09-12T11:12:02;30.92;;;22.33;;
59854;SDS011;45732;52.850;6.896;2022-09-12T11:14:59;26.48;;;19.83;;
59854;SDS011;45732;52.850;6.896;2022-09-12T11:25:58;26.20;;;19.65;;
59854;SDS011;45732;52.850;6.896;2022-09-12T11:34:53;24.00;;;17.77;;
59854;SDS011;45732;52.850;6.896;2022-09-12T11:39:52;21.98;;;15.88;;
59854;SDS011;45732;52.850;6.896;2022-09-12T11:42:25;20.88;;;16.75;;
59854;SDS011;45732;52.850;6.896;2022-09-12T11:45:15;22.30;;;16.23;;
59854;SDS011;45732;52.850;6.896;2022-09-12T11:48:04;21.58;;;15.73;;
59854;SDS011;45732;52.850;6.896;2022-09-12T11:50:36;24.55;;;16.98;;
59854;SDS011;45732;52.850;6.896;2022-09-12T11:53:04;22.77;;;16.30;;
59854;SDS011;45732;52.850;6.896;2022-09-12T11:55:45;20.58;;;15.00;;
59854;SDS011;45732;52.850;6.896;2022-09-12T11:58:22;20.90;;;16.45;;
59854;SDS011;45732;52.850;6.896;2022-09-12T12:00:51;23.33;;;16.48;;
59854;SDS011;45732;52.850;6.896;2022-09-12T12:03:30;17.65;;;14.55;;
59854;SDS011;45732;52.850;6.896;2022-09-12T12:08:45;17.48;;;12.10;;
59854;SDS011;45732;52.850;6.896;2022-09-12T12:11:24;16.25;;;12.18;;
59854;SDS011;45732;52.850;6.896;2022-09-12T12:14:00;15.98;;;12.32;;
59854;SDS011;45732;52.850;6.896;2022-09-12T12:16:32;14.15;;;11.52;;
59854;SDS011;45732;52.850;6.896;2022-09-12T12:19:03;16.98;;;12.00;;
59854;SDS011;45732;52.850;6.896;2022-09-12T12:21:40;15.65;;;11.50;;
59854;SDS011;45732;52.850;6.896;2022-09-12T12:24:18;18.30;;;13.43;;
59854;SDS011;45732;52.850;6.896;2022-09-12T12:45:00;16.83;;;12.07;;
59854;SDS011;45732;52.850;6.896;2022-09-12T12:47:32;14.18;;;9.63;;
59854;SDS011;45732;52.850;6.896;2022-09-12T12:55:22;13.80;;;10.50;;
59854;SDS011;45732;52.850;6.896;2022-09-12T12:58:03;15.05;;;10.40;;
59854;SDS011;45732;52.850;6.896;2022-09-12T13:00:35;15.45;;;10.05;;
59854;SDS011;45732;52.850;6.896;2022-09-12T13:05:36;13.82;;;9.70;;
59854;SDS011;45732;52.850;6.896;2022-09-12T13:08:09;13.13;;;10.55;;
59854;SDS011;45732;52.850;6.896;2022-09-12T13:10:47;15.35;;;11.48;;
59854;SDS011;45732;52.850;6.896;2022-09-12T13:13:20;14.60;;;10.45;;
59854;SDS011;45732;52.850;6.896;2022-09-12T13:15:50;12.50;;;8.55;;
59854;SDS011;45732;52.850;6.896;2022-09-12T13:18:31;12.85;;;9.52;;
59854;SDS011;45732;52.850;6.896;2022-09-12T13:21:16;11.88;;;9.18;;
59854;SDS011;45732;52.850;6.896;2022-09-12T13:23:43;11.23;;;7.85;;
59854;SDS011;45732;52.850;6.896;2022-09-12T13:26:24;11.05;;;6.82;;
59854;SDS011;45732;52.850;6.896;2022-09-12T13:28:59;10.68;;;7.43;;
59854;SDS011;45732;52.850;6.896;2022-09-12T13:31:37;12.85;;;8.02;;
59854;SDS011;45732;52.850;6.896;2022-09-12T13:34:04;12.13;;;8.10;;
59854;SDS011;45732;52.850;6.896;2022-09-12T13:40:21;12.57;;;9.32;;
59854;SDS011;45732;52.850;6.896;2022-09-12T13:42:45;15.25;;;8.80;;
59854;SDS011;45732;52.850;6.896;2022-09-12T13:47:43;11.20;;;8.20;;
59854;SDS011;45732;52.850;6.896;2022-09-12T13:50:21;11.98;;;7.47;;
59854;SDS011;45732;52.850;6.896;2022-09-12T13:52:49;10.77;;;7.82;;
59854;SDS011;45732;52.850;6.896;2022-09-12T14:00:29;10.68;;;6.68;;
59854;SDS011;45732;52.850;6.896;2022-09-12T14:02:58;9.75;;;7.05;;
59854;SDS011;45732;52.850;6.896;2022-09-12T14:05:45;14.27;;;7.40;;
59854;SDS011;45732;52.850;6.896;2022-09-12T14:08:21;8.98;;;5.75;;
59854;SDS011;45732;52.850;6.896;2022-09-12T14:10:48;9.75;;;5.65;;
59854;SDS011;45732;52.850;6.896;2022-09-12T14:15:45;9.50;;;6.90;;
59854;SDS011;45732;52.850;6.896;2022-09-12T14:18:46;9.25;;;6.13;;
59854;SDS011;45732;52.850;6.896;2022-09-12T14:24:08;10.18;;;6.72;;
59854;SDS011;45732;52.850;6.896;2022-09-12T14:26:37;9.68;;;6.95;;
59854;SDS011;45732;52.850;6.896;2022-09-12T14:29:06;11.02;;;6.80;;
59854;SDS011;45732;52.850;6.896;2022-09-12T14:31:36;9.35;;;7.28;;
59854;SDS011;45732;52.850;6.896;2022-09-12T14:34:07;8.90;;;5.97;;
59854;SDS011;45732;52.850;6.896;2022-09-12T14:36:41;10.82;;;6.55;;
59854;SDS011;45732;52.850;6.896;2022-09-12T14:39:27;9.65;;;6.30;;
59854;SDS011;45732;52.850;6.896;2022-09-12T14:42:10;8.43;;;5.85;;
59854;SDS011;45732;52.850;6.896;2022-09-12T14:44:51;9.98;;;5.55;;
59854;SDS011;45732;52.850;6.896;2022-09-12T14:47:19;9.57;;;5.82;;
59854;SDS011;45732;52.850;6.896;2022-09-12T14:49:47;8.55;;;6.13;;
59854;SDS011;45732;52.850;6.896;2022-09-12T14:52:21;8.85;;;5.60;;
59854;SDS011;45732;52.850;6.896;2022-09-12T14:57:38;8.18;;;5.30;;
59854;SDS011;45732;52.850;6.896;2022-09-12T15:02:36;8.55;;;5.25;;
59854;SDS011;45732;52.850;6.896;2022-09-12T15:07:38;7.22;;;4.80;;
59854;SDS011;45732;52.850;6.896;2022-09-12T15:10:16;8.43;;;4.63;;
59854;SDS011;45732;52.850;6.896;2022-09-12T15:18:05;7.22;;;4.40;;
59854;SDS011;45732;52.850;6.896;2022-09-12T15:20:31;7.53;;;4.35;;
59854;SDS011;45732;52.850;6.896;2022-09-12T15:22:59;7.50;;;4.25;;
59854;SDS011;45732;52.850;6.896;2022-09-12T15:25:25;7.43;;;4.50;;
59854;SDS011;45732;52.850;6.896;2022-09-12T15:27:51;6.30;;;3.80;;
59854;SDS011;45732;52.850;6.896;2022-09-12T15:30:17;6.53;;;4.00;;
59854;SDS011;45732;52.850;6.896;2022-09-12T15:32:43;7.00;;;4.50;;
59854;SDS011;45732;52.850;6.896;2022-09-12T15:35:12;6.20;;;3.88;;
59854;SDS011;45732;52.850;6.896;2022-09-12T15:37:43;7.38;;;4.07;;
59854;SDS011;45732;52.850;6.896;2022-09-12T15:40:12;6.93;;;4.70;;
59854;SDS011;45732;52.850;6.896;2022-09-12T15:42:39;6.30;;;4.47;;
59854;SDS011;45732;52.850;6.896;2022-09-12T15:45:18;7.07;;;3.92;;
59854;SDS011;45732;52.850;6.896;2022-09-12T15:47:47;5.88;;;3.72;;
59854;SDS011;45732;52.850;6.896;2022-09-12T15:50:12;5.95;;;3.30;;
59854;SDS011;45732;52.850;6.896;2022-09-12T15:52:38;6.50;;;3.42;;
59854;SDS011;45732;52.850;6.896;2022-09-12T15:55:05;9.95;;;5.25;;
59854;SDS011;45732;52.850;6.896;2022-09-12T15:57:39;6.15;;;3.55;;
59854;SDS011;45732;52.850;6.896;2022-09-12T16:00:05;7.53;;;3.38;;
59854;SDS011;45732;52.850;6.896;2022-09-12T16:02:31;6.13;;;3.50;;
59854;SDS011;45732;52.850;6.896;2022-09-12T16:04:57;6.38;;;3.30;;
59854;SDS011;45732;52.850;6.896;2022-09-12T16:07:22;6.80;;;3.40;;
59854;SDS011;45732;52.850;6.896;2022-09-12T16:09:48;5.40;;;3.70;;
59854;SDS011;45732;52.850;6.896;2022-09-12T16:12:15;6.63;;;3.25;;
59854;SDS011;45732;52.850;6.896;2022-09-12T16:14:49;4.50;;;3.53;;
59854;SDS011;45732;52.850;6.896;2022-09-12T16:17:14;7.22;;;3.60;;
59854;SDS011;45732;52.850;6.896;2022-09-12T16:19:55;7.90;;;3.80;;
59854;SDS011;45732;52.850;6.896;2022-09-12T16:22:27;4.90;;;3.30;;
59854;SDS011;45732;52.850;6.896;2022-09-12T16:24:54;7.45;;;3.95;;
59854;SDS011;45732;52.850;6.896;2022-09-12T16:27:19;7.40;;;3.75;;
59854;SDS011;45732;52.850;6.896;2022-09-12T16:29:45;5.97;;;4.07;;
59854;SDS011;45732;52.850;6.896;2022-09-12T16:32:10;11.13;;;7.63;;
59854;SDS011;45732;52.850;6.896;2022-09-12T16:34:36;8.18;;;4.03;;
59854;SDS011;45732;52.850;6.896;2022-09-12T16:37:02;6.13;;;3.92;;
59854;SDS011;45732;52.850;6.896;2022-09-12T16:39:28;6.18;;;3.60;;
59854;SDS011;45732;52.850;6.896;2022-09-12T16:41:53;5.53;;;3.40;;
59854;SDS011;45732;52.850;6.896;2022-09-12T16:44:19;5.38;;;3.50;;
59854;SDS011;45732;52.850;6.896;2022-09-12T16:46:44;5.22;;;3.17;;
59854;SDS011;45732;52.850;6.896;2022-09-12T16:49:10;7.57;;;3.20;;
59854;SDS011;45732;52.850;6.896;2022-09-12T16:51:36;6.07;;;3.45;;
59854;SDS011;45732;52.850;6.896;2022-09-12T16:54:02;6.80;;;3.70;;
59854;SDS011;45732;52.850;6.896;2022-09-12T16:56:28;4.95;;;3.20;;
59854;SDS011;45732;52.850;6.896;2022-09-12T16:58:54;6.00;;;3.00;;
59854;SDS011;45732;52.850;6.896;2022-09-12T17:01:23;6.32;;;3.38;;
59854;SDS011;45732;52.850;6.896;2022-09-12T17:03:53;5.38;;;3.10;;
59854;SDS011;45732;52.850;6.896;2022-09-12T17:06:20;6.13;;;3.28;;
59854;SDS011;45732;52.850;6.896;2022-09-12T17:08:47;5.35;;;3.15;;
59854;SDS011;45732;52.850;6.896;2022-09-12T17:11:16;5.43;;;3.10;;
59854;SDS011;45732;52.850;6.896;2022-09-12T17:13:50;6.72;;;2.97;;
59854;SDS011;45732;52.850;6.896;2022-09-12T17:16:17;6.35;;;3.40;;
59854;SDS011;45732;52.850;6.896;2022-09-12T17:18:44;8.60;;;4.30;;
59854;SDS011;45732;52.850;6.896;2022-09-12T17:21:11;7.40;;;3.70;;
59854;SDS011;45732;52.850;6.896;2022-09-12T17:23:37;6.22;;;3.20;;
59854;SDS011;45732;52.850;6.896;2022-09-12T17:26:03;5.72;;;3.13;;
59854;SDS011;45732;52.850;6.896;2022-09-12T17:28:30;9.25;;;4.22;;
59854;SDS011;45732;52.850;6.896;2022-09-12T17:30:57;5.25;;;3.65;;
59854;SDS011;45732;52.850;6.896;2022-09-12T17:33:28;5.80;;;3.70;;
59854;SDS011;45732;52.850;6.896;2022-09-12T17:35:54;5.78;;;3.85;;
59854;SDS011;45732;52.850;6.896;2022-09-12T17:38:24;9.80;;;3.80;;
59854;SDS011;45732;52.850;6.896;2022-09-12T17:40:50;5.90;;;4.00;;
59854;SDS011;45732;52.850;6.896;2022-09-12T17:43:16;6.35;;;4.10;;